sensor_id;sensor_type;location;lat;lon;timestamp;temperature;humidity
43561;DHT22;32305;46.410;17.394;2023-02-15T00:02:01;20.70;34.70
43561;DHT22;32305;46.410;17.394;2023-02-15T00:04:29;20.70;34.70
43561;DHT22;32305;46.410;17.394;2023-02-15T00:07:17;20.70;34.70
43561;DHT22;32305;46.410;17.394;2023-02-15T00:09:46;20.70;34.70
43561;DHT22;32305;46.410;17.394;2023-02-15T00:12:15;20.70;34.70
43561;DHT22;32305;46.410;17.394;2023-02-15T00:14:42;20.70;34.70
43561;DHT22;32305;46.410;17.394;2023-02-15T00:17:09;20.70;34.70
43561;DHT22;32305;46.410;17.394;2023-02-15T00:19:36;20.70;34.70
43561;DHT22;32305;46.410;17.394;2023-02-15T00:22:04;20.70;34.70
43561;DHT22;32305;46.410;17.394;2023-02-15T00:24:31;20.70;34.70
43561;DHT22;32305;46.410;17.394;2023-02-15T00:26:58;20.70;34.70
43561;DHT22;32305;46.410;17.394;2023-02-15T00:29:26;20.70;34.60
43561;DHT22;32305;46.410;17.394;2023-02-15T00:31:53;20.70;34.70
43561;DHT22;32305;46.410;17.394;2023-02-15T00:34:23;20.70;34.60
43561;DHT22;32305;46.410;17.394;2023-02-15T00:36:51;20.70;34.60
43561;DHT22;32305;46.410;17.394;2023-02-15T00:39:18;20.70;34.60
43561;DHT22;32305;46.410;17.394;2023-02-15T00:41:47;20.70;34.60
43561;DHT22;32305;46.410;17.394;2023-02-15T00:44:14;20.60;34.50
43561;DHT22;32305;46.410;17.394;2023-02-15T00:46:42;20.60;34.50
43561;DHT22;32305;46.410;17.394;2023-02-15T00:49:10;20.60;34.40
43561;DHT22;32305;46.410;17.394;2023-02-15T00:51:37;20.60;34.40
43561;DHT22;32305;46.410;17.394;2023-02-15T00:54:05;20.60;34.40
43561;DHT22;32305;46.410;17.394;2023-02-15T00:56:32;20.60;34.40
43561;DHT22;32305;46.410;17.394;2023-02-15T00:58:59;20.60;34.40
43561;DHT22;32305;46.410;17.394;2023-02-15T01:01:26;20.60;34.40
43561;DHT22;32305;46.410;17.394;2023-02-15T01:03:53;20.60;34.40
43561;DHT22;32305;46.410;17.394;2023-02-15T01:06:21;20.60;34.40
43561;DHT22;32305;46.410;17.394;2023-02-15T01:08:48;20.60;34.40
43561;DHT22;32305;46.410;17.394;2023-02-15T01:11:17;20.60;34.40
43561;DHT22;32305;46.410;17.394;2023-02-15T01:13:51;20.60;34.90
43561;DHT22;32305;46.410;17.394;2023-02-15T01:16:19;20.60;34.30
43561;DHT22;32305;46.410;17.394;2023-02-15T01:18:47;20.60;34.30
43561;DHT22;32305;46.410;17.394;2023-02-15T01:21:17;20.60;34.40
43561;DHT22;32305;46.410;17.394;2023-02-15T01:23:44;20.60;34.30
43561;DHT22;32305;46.410;17.394;2023-02-15T01:26:12;20.50;34.30
43561;DHT22;32305;46.410;17.394;2023-02-15T01:28:39;20.50;34.30
43561;DHT22;32305;46.410;17.394;2023-02-15T01:31:09;20.50;34.30
43561;DHT22;32305;46.410;17.394;2023-02-15T01:33:36;20.50;34.30
43561;DHT22;32305;46.410;17.394;2023-02-15T01:36:04;20.50;34.30
43561;DHT22;32305;46.410;17.394;2023-02-15T01:38:32;20.50;34.20
43561;DHT22;32305;46.410;17.394;2023-02-15T01:40:59;20.50;34.20
43561;DHT22;32305;46.410;17.394;2023-02-15T01:43:49;20.50;34.20
43561;DHT22;32305;46.410;17.394;2023-02-15T01:46:19;20.50;34.20
43561;DHT22;32305;46.410;17.394;2023-02-15T01:48:52;20.50;34.20
43561;DHT22;32305;46.410;17.394;2023-02-15T01:51:23;20.50;34.20
43561;DHT22;32305;46.410;17.394;2023-02-15T01:53:57;20.50;34.20
43561;DHT22;32305;46.410;17.394;2023-02-15T01:56:30;20.50;34.20
43561;DHT22;32305;46.410;17.394;2023-02-15T01:59:02;20.50;34.20
43561;DHT22;32305;46.410;17.394;2023-02-15T02:01:31;20.40;34.20
43561;DHT22;32305;46.410;17.394;2023-02-15T02:07:06;20.50;34.20
43561;DHT22;32305;46.410;17.394;2023-02-15T02:09:36;20.40;34.10
43561;DHT22;32305;46.410;17.394;2023-02-15T02:12:04;20.40;34.10
43561;DHT22;32305;46.410;17.394;2023-02-15T02:14:31;20.40;34.10
43561;DHT22;32305;46.410;17.394;2023-02-15T02:17:27;20.40;34.10
43561;DHT22;32305;46.410;17.394;2023-02-15T02:20:26;20.40;34.10
43561;DHT22;32305;46.410;17.394;2023-02-15T02:23:15;20.40;34.10
43561;DHT22;32305;46.410;17.394;2023-02-15T02:32:23;20.40;34.10
43561;DHT22;32305;46.410;17.394;2023-02-15T02:35:08;20.40;34.10
43561;DHT22;32305;46.410;17.394;2023-02-15T02:38:00;20.40;34.00
43561;DHT22;32305;46.410;17.394;2023-02-15T02:40:48;20.40;34.00
43561;DHT22;32305;46.410;17.394;2023-02-15T02:43:34;20.40;34.00
43561;DHT22;32305;46.410;17.394;2023-02-15T02:46:17;20.40;34.00
43561;DHT22;32305;46.410;17.394;2023-02-15T02:48:48;20.40;34.00
43561;DHT22;32305;46.410;17.394;2023-02-15T02:51:16;20.40;34.00
43561;DHT22;32305;46.410;17.394;2023-02-15T02:53:51;20.40;34.00
43561;DHT22;32305;46.410;17.394;2023-02-15T02:56:27;20.40;34.00
43561;DHT22;32305;46.410;17.394;2023-02-15T02:59:02;20.40;33.90
43561;DHT22;32305;46.410;17.394;2023-02-15T03:01:44;20.30;33.90
43561;DHT22;32305;46.410;17.394;2023-02-15T03:04:22;20.30;33.80
43561;DHT22;32305;46.410;17.394;2023-02-15T03:06:55;20.40;33.90
43561;DHT22;32305;46.410;17.394;2023-02-15T03:09:32;20.30;33.90
43561;DHT22;32305;46.410;17.394;2023-02-15T03:12:26;20.40;33.90
43561;DHT22;32305;46.410;17.394;2023-02-15T03:15:06;20.30;33.80
43561;DHT22;32305;46.410;17.394;2023-02-15T03:17:38;20.30;33.80
43561;DHT22;32305;46.410;17.394;2023-02-15T03:20:14;20.30;33.80
43561;DHT22;32305;46.410;17.394;2023-02-15T03:22:48;20.30;33.80
43561;DHT22;32305;46.410;17.394;2023-02-15T03:25:31;20.30;33.80
43561;DHT22;32305;46.410;17.394;2023-02-15T03:28:03;20.30;33.80
43561;DHT22;32305;46.410;17.394;2023-02-15T03:30:32;20.30;33.80
43561;DHT22;32305;46.410;17.394;2023-02-15T03:33:02;20.30;33.70
43561;DHT22;32305;46.410;17.394;2023-02-15T03:35:39;20.30;33.70
43561;DHT22;32305;46.410;17.394;2023-02-15T03:38:13;20.30;33.70
43561;DHT22;32305;46.410;17.394;2023-02-15T03:40:45;20.30;33.70
43561;DHT22;32305;46.410;17.394;2023-02-15T03:43:53;20.30;33.70
43561;DHT22;32305;46.410;17.394;2023-02-15T03:46:42;20.30;33.70
43561;DHT22;32305;46.410;17.394;2023-02-15T03:49:23;20.30;33.70
43561;DHT22;32305;46.410;17.394;2023-02-15T03:51:54;20.30;33.70
43561;DHT22;32305;46.410;17.394;2023-02-15T03:54:22;20.30;33.70
43561;DHT22;32305;46.410;17.394;2023-02-15T03:57:20;20.30;33.60
43561;DHT22;32305;46.410;17.394;2023-02-15T04:00:19;20.30;33.70
43561;DHT22;32305;46.410;17.394;2023-02-15T04:03:32;20.20;33.60
43561;DHT22;32305;46.410;17.394;2023-02-15T04:06:01;20.30;33.60
43561;DHT22;32305;46.410;17.394;2023-02-15T04:08:29;20.20;33.60
43561;DHT22;32305;46.410;17.394;2023-02-15T04:11:16;20.20;33.60
43561;DHT22;32305;46.410;17.394;2023-02-15T04:13:44;20.20;33.60
43561;DHT22;32305;46.410;17.394;2023-02-15T04:16:11;20.20;33.60
43561;DHT22;32305;46.410;17.394;2023-02-15T04:18:42;20.20;33.60
43561;DHT22;32305;46.410;17.394;2023-02-15T04:21:30;20.20;33.50
43561;DHT22;32305;46.410;17.394;2023-02-15T04:24:18;20.20;33.50
43561;DHT22;32305;46.410;17.394;2023-02-15T04:27:05;20.20;33.50
43561;DHT22;32305;46.410;17.394;2023-02-15T04:29:32;20.20;33.50
43561;DHT22;32305;46.410;17.394;2023-02-15T04:32:00;20.20;33.50
43561;DHT22;32305;46.410;17.394;2023-02-15T04:34:28;20.20;33.60
43561;DHT22;32305;46.410;17.394;2023-02-15T04:36:55;20.20;33.50
43561;DHT22;32305;46.410;17.394;2023-02-15T04:39:23;20.20;33.50
43561;DHT22;32305;46.410;17.394;2023-02-15T04:41:50;20.20;33.40
43561;DHT22;32305;46.410;17.394;2023-02-15T04:44:17;20.20;33.40
43561;DHT22;32305;46.410;17.394;2023-02-15T04:46:44;20.20;33.50
43561;DHT22;32305;46.410;17.394;2023-02-15T04:49:11;20.20;33.40
43561;DHT22;32305;46.410;17.394;2023-02-15T04:51:38;20.20;33.40
43561;DHT22;32305;46.410;17.394;2023-02-15T04:54:05;20.20;33.40
43561;DHT22;32305;46.410;17.394;2023-02-15T04:56:32;20.20;33.40
43561;DHT22;32305;46.410;17.394;2023-02-15T04:59:01;20.20;33.40
43561;DHT22;32305;46.410;17.394;2023-02-15T05:01:28;20.20;33.40
43561;DHT22;32305;46.410;17.394;2023-02-15T05:03:56;20.20;33.30
43561;DHT22;32305;46.410;17.394;2023-02-15T05:06:23;20.20;33.30
43561;DHT22;32305;46.410;17.394;2023-02-15T05:08:50;20.20;33.30
43561;DHT22;32305;46.410;17.394;2023-02-15T05:11:17;20.20;33.30
43561;DHT22;32305;46.410;17.394;2023-02-15T05:13:44;20.20;33.30
43561;DHT22;32305;46.410;17.394;2023-02-15T05:16:12;20.20;33.30
43561;DHT22;32305;46.410;17.394;2023-02-15T05:18:39;20.20;33.80
43561;DHT22;32305;46.410;17.394;2023-02-15T05:21:06;20.20;33.80
43561;DHT22;32305;46.410;17.394;2023-02-15T05:23:33;20.20;33.20
43561;DHT22;32305;46.410;17.394;2023-02-15T05:26:00;20.10;33.20
43561;DHT22;32305;46.410;17.394;2023-02-15T05:28:47;20.10;33.20
43561;DHT22;32305;46.410;17.394;2023-02-15T05:31:17;20.10;33.20
43561;DHT22;32305;46.410;17.394;2023-02-15T05:33:45;20.10;33.10
43561;DHT22;32305;46.410;17.394;2023-02-15T05:36:12;20.10;33.10
43561;DHT22;32305;46.410;17.394;2023-02-15T05:38:40;20.10;32.90
43561;DHT22;32305;46.410;17.394;2023-02-15T05:41:08;20.10;32.70
43561;DHT22;32305;46.410;17.394;2023-02-15T05:43:36;20.00;32.60
43561;DHT22;32305;46.410;17.394;2023-02-15T05:46:04;20.00;32.60
43561;DHT22;32305;46.410;17.394;2023-02-15T05:48:32;20.00;32.70
43561;DHT22;32305;46.410;17.394;2023-02-15T05:51:05;20.00;32.70
43561;DHT22;32305;46.410;17.394;2023-02-15T05:53:35;19.90;32.60
43561;DHT22;32305;46.410;17.394;2023-02-15T05:56:03;19.90;32.60
43561;DHT22;32305;46.410;17.394;2023-02-15T05:58:34;19.90;32.60
43561;DHT22;32305;46.410;17.394;2023-02-15T06:01:12;20.00;32.70
43561;DHT22;32305;46.410;17.394;2023-02-15T06:03:40;20.00;32.70
43561;DHT22;32305;46.410;17.394;2023-02-15T06:06:07;20.00;32.70
43561;DHT22;32305;46.410;17.394;2023-02-15T06:08:36;20.00;32.80
43561;DHT22;32305;46.410;17.394;2023-02-15T06:11:04;20.00;32.70
43561;DHT22;32305;46.410;17.394;2023-02-15T06:13:32;20.10;32.80
43561;DHT22;32305;46.410;17.394;2023-02-15T06:16:01;20.10;32.80
43561;DHT22;32305;46.410;17.394;2023-02-15T06:18:29;20.10;32.70
43561;DHT22;32305;46.410;17.394;2023-02-15T06:20:56;20.20;32.80
43561;DHT22;32305;46.410;17.394;2023-02-15T06:23:23;20.20;32.70
43561;DHT22;32305;46.410;17.394;2023-02-15T06:25:50;20.30;32.60
43561;DHT22;32305;46.410;17.394;2023-02-15T06:28:17;20.30;33.10
43561;DHT22;32305;46.410;17.394;2023-02-15T06:34:35;20.40;32.60
43561;DHT22;32305;46.410;17.394;2023-02-15T06:37:02;20.50;32.60
43561;DHT22;32305;46.410;17.394;2023-02-15T06:39:56;20.60;32.60
43561;DHT22;32305;46.410;17.394;2023-02-15T06:48:52;20.70;32.10
43561;DHT22;32305;46.410;17.394;2023-02-15T06:51:23;20.80;32.10
43561;DHT22;32305;46.410;17.394;2023-02-15T06:53:53;20.80;32.00
43561;DHT22;32305;46.410;17.394;2023-02-15T07:00:33;20.90;31.90
43561;DHT22;32305;46.410;17.394;2023-02-15T07:03:21;21.00;31.90
43561;DHT22;32305;46.410;17.394;2023-02-15T07:05:48;21.00;31.90
43561;DHT22;32305;46.410;17.394;2023-02-15T07:08:19;21.10;32.60
43561;DHT22;32305;46.410;17.394;2023-02-15T07:18:31;21.30;33.00
43561;DHT22;32305;46.410;17.394;2023-02-15T07:21:07;21.30;32.90
43561;DHT22;32305;46.410;17.394;2023-02-15T07:23:40;21.40;33.30
43561;DHT22;32305;46.410;17.394;2023-02-15T07:26:08;21.40;33.60
43561;DHT22;32305;46.410;17.394;2023-02-15T07:28:35;21.50;33.80
43561;DHT22;32305;46.410;17.394;2023-02-15T07:31:04;21.50;34.00
43561;DHT22;32305;46.410;17.394;2023-02-15T07:33:33;21.60;34.00
43561;DHT22;32305;46.410;17.394;2023-02-15T07:36:38;21.70;33.90
43561;DHT22;32305;46.410;17.394;2023-02-15T07:47:09;21.80;33.80
43561;DHT22;32305;46.410;17.394;2023-02-15T07:49:36;21.90;33.70
43561;DHT22;32305;46.410;17.394;2023-02-15T07:52:03;22.00;33.60
43561;DHT22;32305;46.410;17.394;2023-02-15T07:54:30;22.00;33.40
43561;DHT22;32305;46.410;17.394;2023-02-15T07:56:58;22.10;33.40
43561;DHT22;32305;46.410;17.394;2023-02-15T07:59:32;22.10;33.40
43561;DHT22;32305;46.410;17.394;2023-02-15T08:02:00;22.10;33.10
43561;DHT22;32305;46.410;17.394;2023-02-15T08:04:27;22.20;32.90
43561;DHT22;32305;46.410;17.394;2023-02-15T08:06:54;22.20;32.70
43561;DHT22;32305;46.410;17.394;2023-02-15T08:09:41;22.30;32.80
43561;DHT22;32305;46.410;17.394;2023-02-15T08:19:42;22.40;32.70
43561;DHT22;32305;46.410;17.394;2023-02-15T08:22:13;22.50;32.80
43561;DHT22;32305;46.410;17.394;2023-02-15T08:27:58;22.60;32.60
43561;DHT22;32305;46.410;17.394;2023-02-15T08:30:25;22.60;32.50
43561;DHT22;32305;46.410;17.394;2023-02-15T08:32:52;22.70;32.50
43561;DHT22;32305;46.410;17.394;2023-02-15T08:35:19;22.70;32.50
43561;DHT22;32305;46.410;17.394;2023-02-15T08:37:47;22.70;32.40
43561;DHT22;32305;46.410;17.394;2023-02-15T08:40:14;22.80;32.50
43561;DHT22;32305;46.410;17.394;2023-02-15T08:42:41;22.80;32.40
43561;DHT22;32305;46.410;17.394;2023-02-15T08:45:08;22.90;32.40
43561;DHT22;32305;46.410;17.394;2023-02-15T08:47:35;22.90;32.30
43561;DHT22;32305;46.410;17.394;2023-02-15T09:01:16;23.20;32.00
43561;DHT22;32305;46.410;17.394;2023-02-15T09:03:46;23.20;31.90
43561;DHT22;32305;46.410;17.394;2023-02-15T09:06:14;23.30;31.80
43561;DHT22;32305;46.410;17.394;2023-02-15T09:09:07;23.30;31.70
43561;DHT22;32305;46.410;17.394;2023-02-15T09:11:43;23.40;31.70
43561;DHT22;32305;46.410;17.394;2023-02-15T09:14:13;23.40;31.80
43561;DHT22;32305;46.410;17.394;2023-02-15T09:16:41;23.40;31.90
43561;DHT22;32305;46.410;17.394;2023-02-15T09:23:19;23.50;31.70
43561;DHT22;32305;46.410;17.394;2023-02-15T09:25:52;23.60;32.20
43561;DHT22;32305;46.410;17.394;2023-02-15T09:43:42;23.90;33.00
43561;DHT22;32305;46.410;17.394;2023-02-15T09:46:27;23.90;32.20
43561;DHT22;32305;46.410;17.394;2023-02-15T09:49:33;24.00;31.80
43561;DHT22;32305;46.410;17.394;2023-02-15T09:58:29;24.10;31.20
43561;DHT22;32305;46.410;17.394;2023-02-15T10:07:33;24.10;30.80
43561;DHT22;32305;46.410;17.394;2023-02-15T10:10:16;24.10;30.80
43561;DHT22;32305;46.410;17.394;2023-02-15T10:19:27;24.30;31.20
43561;DHT22;32305;46.410;17.394;2023-02-15T10:23:25;24.30;31.30
43561;DHT22;32305;46.410;17.394;2023-02-15T10:27:19;24.30;31.10
43561;DHT22;32305;46.410;17.394;2023-02-15T10:41:09;24.60;31.30
43561;DHT22;32305;46.410;17.394;2023-02-15T10:44:20;24.60;31.20
43561;DHT22;32305;46.410;17.394;2023-02-15T10:47:01;24.70;31.10
43561;DHT22;32305;46.410;17.394;2023-02-15T10:53:48;24.70;31.00
43561;DHT22;32305;46.410;17.394;2023-02-15T10:57:02;24.70;30.80
43561;DHT22;32305;46.410;17.394;2023-02-15T11:03:16;24.80;30.60
43561;DHT22;32305;46.410;17.394;2023-02-15T11:06:04;24.80;30.70
43561;DHT22;32305;46.410;17.394;2023-02-15T11:08:35;24.90;30.40
43561;DHT22;32305;46.410;17.394;2023-02-15T11:11:15;24.90;30.30
43561;DHT22;32305;46.410;17.394;2023-02-15T11:13:49;24.90;30.10
43561;DHT22;32305;46.410;17.394;2023-02-15T11:16:34;24.90;30.00
43561;DHT22;32305;46.410;17.394;2023-02-15T11:19:13;24.90;30.00
43561;DHT22;32305;46.410;17.394;2023-02-15T11:21:47;24.90;30.00
43561;DHT22;32305;46.410;17.394;2023-02-15T11:24:19;24.90;30.00
43561;DHT22;32305;46.410;17.394;2023-02-15T11:26:55;24.90;29.90
43561;DHT22;32305;46.410;17.394;2023-02-15T11:32:34;24.90;29.80
43561;DHT22;32305;46.410;17.394;2023-02-15T11:35:19;24.90;29.80
43561;DHT22;32305;46.410;17.394;2023-02-15T11:37:54;24.90;29.70
43561;DHT22;32305;46.410;17.394;2023-02-15T11:40:27;24.90;29.70
43561;DHT22;32305;46.410;17.394;2023-02-15T11:43:04;24.90;29.70
43561;DHT22;32305;46.410;17.394;2023-02-15T11:45:34;24.90;29.80
43561;DHT22;32305;46.410;17.394;2023-02-15T11:48:09;24.90;29.80
43561;DHT22;32305;46.410;17.394;2023-02-15T11:50:37;24.90;29.90
43561;DHT22;32305;46.410;17.394;2023-02-15T11:53:09;24.90;29.80
43561;DHT22;32305;46.410;17.394;2023-02-15T11:55:38;24.90;29.80
43561;DHT22;32305;46.410;17.394;2023-02-15T12:01:22;24.80;29.80
43561;DHT22;32305;46.410;17.394;2023-02-15T12:03:52;24.80;29.80
43561;DHT22;32305;46.410;17.394;2023-02-15T12:06:35;24.80;29.90
43561;DHT22;32305;46.410;17.394;2023-02-15T12:12:29;24.80;29.80
43561;DHT22;32305;46.410;17.394;2023-02-15T12:15:02;24.80;29.80
43561;DHT22;32305;46.410;17.394;2023-02-15T12:17:38;24.80;29.80
43561;DHT22;32305;46.410;17.394;2023-02-15T12:20:24;24.80;29.80
43561;DHT22;32305;46.410;17.394;2023-02-15T12:22:59;24.80;29.70
43561;DHT22;32305;46.410;17.394;2023-02-15T12:25:48;24.80;29.70
43561;DHT22;32305;46.410;17.394;2023-02-15T12:28:42;24.80;29.80
43561;DHT22;32305;46.410;17.394;2023-02-15T12:31:26;24.80;29.70
43561;DHT22;32305;46.410;17.394;2023-02-15T12:33:55;24.70;29.70
43561;DHT22;32305;46.410;17.394;2023-02-15T12:36:30;24.80;29.70
43561;DHT22;32305;46.410;17.394;2023-02-15T12:39:19;24.80;29.70
43561;DHT22;32305;46.410;17.394;2023-02-15T12:42:04;24.70;29.70
43561;DHT22;32305;46.410;17.394;2023-02-15T12:44:34;24.70;29.60
43561;DHT22;32305;46.410;17.394;2023-02-15T12:47:18;24.80;29.70
43561;DHT22;32305;46.410;17.394;2023-02-15T12:50:06;24.70;29.70
43561;DHT22;32305;46.410;17.394;2023-02-15T12:52:39;24.80;29.70
43561;DHT22;32305;46.410;17.394;2023-02-15T12:55:19;24.70;29.70
43561;DHT22;32305;46.410;17.394;2023-02-15T12:57:46;24.80;29.70
43561;DHT22;32305;46.410;17.394;2023-02-15T13:00:28;24.80;29.70
43561;DHT22;32305;46.410;17.394;2023-02-15T13:02:59;24.80;29.90
43561;DHT22;32305;46.410;17.394;2023-02-15T13:05:38;24.70;29.60
43561;DHT22;32305;46.410;17.394;2023-02-15T13:08:28;24.80;29.70
43561;DHT22;32305;46.410;17.394;2023-02-15T13:11:03;24.70;29.60
43561;DHT22;32305;46.410;17.394;2023-02-15T13:13:33;24.70;29.70
43561;DHT22;32305;46.410;17.394;2023-02-15T13:16:09;24.80;29.80
43561;DHT22;32305;46.410;17.394;2023-02-15T13:18:45;24.80;29.80
43561;DHT22;32305;46.410;17.394;2023-02-15T13:21:16;24.80;29.80
43561;DHT22;32305;46.410;17.394;2023-02-15T13:23:49;24.70;29.80
43561;DHT22;32305;46.410;17.394;2023-02-15T13:26:20;24.80;29.80
43561;DHT22;32305;46.410;17.394;2023-02-15T13:28:57;24.70;29.80
43561;DHT22;32305;46.410;17.394;2023-02-15T13:31:28;24.70;29.80
43561;DHT22;32305;46.410;17.394;2023-02-15T13:34:10;24.70;29.90
43561;DHT22;32305;46.410;17.394;2023-02-15T13:37:04;24.70;29.90
43561;DHT22;32305;46.410;17.394;2023-02-15T13:39:57;24.70;29.90
43561;DHT22;32305;46.410;17.394;2023-02-15T13:42:45;24.80;29.90
43561;DHT22;32305;46.410;17.394;2023-02-15T13:45:39;24.70;29.90
43561;DHT22;32305;46.410;17.394;2023-02-15T13:48:20;24.80;29.90
43561;DHT22;32305;46.410;17.394;2023-02-15T14:00:29;24.80;29.80
43561;DHT22;32305;46.410;17.394;2023-02-15T14:06:44;24.70;29.80
43561;DHT22;32305;46.410;17.394;2023-02-15T14:12:42;24.70;29.80
43561;DHT22;32305;46.410;17.394;2023-02-15T14:15:34;24.70;29.80
43561;DHT22;32305;46.410;17.394;2023-02-15T14:18:22;24.70;29.80
43561;DHT22;32305;46.410;17.394;2023-02-15T14:21:17;24.70;30.00
43561;DHT22;32305;46.410;17.394;2023-02-15T14:24:15;24.70;30.00
43561;DHT22;32305;46.410;17.394;2023-02-15T14:26:57;24.70;30.00
43561;DHT22;32305;46.410;17.394;2023-02-15T14:29:54;24.70;30.00
43561;DHT22;32305;46.410;17.394;2023-02-15T14:32:39;24.70;30.00
43561;DHT22;32305;46.410;17.394;2023-02-15T14:35:23;24.70;30.10
43561;DHT22;32305;46.410;17.394;2023-02-15T14:41:21;24.70;30.60
43561;DHT22;32305;46.410;17.394;2023-02-15T14:44:13;24.70;30.60
43561;DHT22;32305;46.410;17.394;2023-02-15T14:46:57;24.70;30.70
43561;DHT22;32305;46.410;17.394;2023-02-15T14:49:35;24.70;30.70
43561;DHT22;32305;46.410;17.394;2023-02-15T14:52:08;24.70;30.80
43561;DHT22;32305;46.410;17.394;2023-02-15T14:54:58;24.70;30.80
43561;DHT22;32305;46.410;17.394;2023-02-15T14:57:26;24.70;30.70
43561;DHT22;32305;46.410;17.394;2023-02-15T14:59:59;24.70;30.70
43561;DHT22;32305;46.410;17.394;2023-02-15T15:02:49;24.70;30.60
43561;DHT22;32305;46.410;17.394;2023-02-15T15:05:29;24.70;30.60
43561;DHT22;32305;46.410;17.394;2023-02-15T15:08:00;24.60;30.70
43561;DHT22;32305;46.410;17.394;2023-02-15T15:10:40;24.60;30.60
43561;DHT22;32305;46.410;17.394;2023-02-15T15:13:34;24.70;30.60
43561;DHT22;32305;46.410;17.394;2023-02-15T15:19:11;24.60;30.90
43561;DHT22;32305;46.410;17.394;2023-02-15T15:21:56;24.60;31.00
43561;DHT22;32305;46.410;17.394;2023-02-15T15:24:53;24.50;31.10
43561;DHT22;32305;46.410;17.394;2023-02-15T15:27:45;24.50;31.40
43561;DHT22;32305;46.410;17.394;2023-02-15T15:34:18;24.50;31.50
43561;DHT22;32305;46.410;17.394;2023-02-15T15:39:52;24.40;31.70
43561;DHT22;32305;46.410;17.394;2023-02-15T15:42:48;24.30;31.90
43561;DHT22;32305;46.410;17.394;2023-02-15T15:45:45;24.30;31.90
43561;DHT22;32305;46.410;17.394;2023-02-15T15:48:29;24.30;32.10
43561;DHT22;32305;46.410;17.394;2023-02-15T15:50:59;24.20;32.00
43561;DHT22;32305;46.410;17.394;2023-02-15T15:53:29;24.10;32.00
43561;DHT22;32305;46.410;17.394;2023-02-15T15:56:05;24.10;32.10
43561;DHT22;32305;46.410;17.394;2023-02-15T15:58:34;24.10;32.30
43561;DHT22;32305;46.410;17.394;2023-02-15T16:01:09;24.00;32.40
43561;DHT22;32305;46.410;17.394;2023-02-15T16:03:38;24.00;32.60
43561;DHT22;32305;46.410;17.394;2023-02-15T16:06:06;23.90;32.80
43561;DHT22;32305;46.410;17.394;2023-02-15T16:08:38;23.90;33.10
43561;DHT22;32305;46.410;17.394;2023-02-15T16:11:15;23.90;33.40
43561;DHT22;32305;46.410;17.394;2023-02-15T16:13:44;23.80;33.60
43561;DHT22;32305;46.410;17.394;2023-02-15T16:16:27;23.80;33.80
43561;DHT22;32305;46.410;17.394;2023-02-15T16:18:57;23.70;34.30
43561;DHT22;32305;46.410;17.394;2023-02-15T16:21:32;23.70;34.70
43561;DHT22;32305;46.410;17.394;2023-02-15T16:24:16;23.70;35.00
43561;DHT22;32305;46.410;17.394;2023-02-15T16:27:13;23.70;35.20
43561;DHT22;32305;46.410;17.394;2023-02-15T16:29:44;23.60;35.20
43561;DHT22;32305;46.410;17.394;2023-02-15T16:32:23;23.60;35.20
43561;DHT22;32305;46.410;17.394;2023-02-15T16:34:53;23.60;35.10
43561;DHT22;32305;46.410;17.394;2023-02-15T16:37:23;23.50;35.10
43561;DHT22;32305;46.410;17.394;2023-02-15T16:39:54;23.50;35.10
43561;DHT22;32305;46.410;17.394;2023-02-15T16:42:21;23.40;35.00
43561;DHT22;32305;46.410;17.394;2023-02-15T16:45:05;23.40;35.00
43561;DHT22;32305;46.410;17.394;2023-02-15T16:47:40;23.40;35.00
43561;DHT22;32305;46.410;17.394;2023-02-15T16:50:20;23.30;34.90
43561;DHT22;32305;46.410;17.394;2023-02-15T16:52:48;23.30;34.90
43561;DHT22;32305;46.410;17.394;2023-02-15T16:55:24;23.20;34.80
43561;DHT22;32305;46.410;17.394;2023-02-15T16:57:59;23.20;34.90
43561;DHT22;32305;46.410;17.394;2023-02-15T17:00:36;23.10;35.00
43561;DHT22;32305;46.410;17.394;2023-02-15T17:03:20;23.10;35.10
43561;DHT22;32305;46.410;17.394;2023-02-15T17:05:50;23.00;35.30
43561;DHT22;32305;46.410;17.394;2023-02-15T17:11:17;23.00;35.40
43561;DHT22;32305;46.410;17.394;2023-02-15T17:14:12;22.90;35.50
43561;DHT22;32305;46.410;17.394;2023-02-15T17:16:48;22.90;35.60
43561;DHT22;32305;46.410;17.394;2023-02-15T17:19:26;22.80;35.80
43561;DHT22;32305;46.410;17.394;2023-02-15T17:21:57;22.80;36.10
43561;DHT22;32305;46.410;17.394;2023-02-15T17:24:40;22.80;36.20
43561;DHT22;32305;46.410;17.394;2023-02-15T17:27:18;22.70;38.20
43561;DHT22;32305;46.410;17.394;2023-02-15T17:29:51;22.70;41.00
43561;DHT22;32305;46.410;17.394;2023-02-15T17:32:25;22.70;42.30
43561;DHT22;32305;46.410;17.394;2023-02-15T17:35:16;22.70;42.40
43561;DHT22;32305;46.410;17.394;2023-02-15T17:37:48;22.70;42.40
43561;DHT22;32305;46.410;17.394;2023-02-15T17:40:28;22.70;43.10
43561;DHT22;32305;46.410;17.394;2023-02-15T17:42:56;22.60;43.20
43561;DHT22;32305;46.410;17.394;2023-02-15T17:45:38;22.60;42.80
43561;DHT22;32305;46.410;17.394;2023-02-15T17:48:28;22.60;42.00
43561;DHT22;32305;46.410;17.394;2023-02-15T17:50:58;22.60;41.00
43561;DHT22;32305;46.410;17.394;2023-02-15T17:53:25;22.50;40.20
43561;DHT22;32305;46.410;17.394;2023-02-15T17:55:54;22.50;39.50
43561;DHT22;32305;46.410;17.394;2023-02-15T17:58:22;22.50;38.90
43561;DHT22;32305;46.410;17.394;2023-02-15T18:00:52;22.40;38.40
43561;DHT22;32305;46.410;17.394;2023-02-15T18:03:52;22.40;38.10
43561;DHT22;32305;46.410;17.394;2023-02-15T18:06:41;22.40;37.80
43561;DHT22;32305;46.410;17.394;2023-02-15T18:09:29;22.30;37.70
43561;DHT22;32305;46.410;17.394;2023-02-15T18:12:29;22.30;37.60
43561;DHT22;32305;46.410;17.394;2023-02-15T18:14:58;22.20;37.50
43561;DHT22;32305;46.410;17.394;2023-02-15T18:17:33;22.20;37.50
43561;DHT22;32305;46.410;17.394;2023-02-15T18:20:04;22.20;37.50
43561;DHT22;32305;46.410;17.394;2023-02-15T18:22:34;22.20;37.40
43561;DHT22;32305;46.410;17.394;2023-02-15T18:25:03;22.10;37.40
43561;DHT22;32305;46.410;17.394;2023-02-15T18:27:32;22.10;37.60
43561;DHT22;32305;46.410;17.394;2023-02-15T18:30:01;22.10;37.60
43561;DHT22;32305;46.410;17.394;2023-02-15T18:32:35;22.10;37.60
43561;DHT22;32305;46.410;17.394;2023-02-15T18:35:06;22.10;37.70
43561;DHT22;32305;46.410;17.394;2023-02-15T18:37:34;22.10;37.70
43561;DHT22;32305;46.410;17.394;2023-02-15T18:40:02;22.00;37.70
43561;DHT22;32305;46.410;17.394;2023-02-15T18:42:33;22.00;37.70
43561;DHT22;32305;46.410;17.394;2023-02-15T18:45:15;22.00;37.60
43561;DHT22;32305;46.410;17.394;2023-02-15T18:47:44;22.00;37.50
43561;DHT22;32305;46.410;17.394;2023-02-15T18:50:18;22.00;37.50